Portada
METAR-TAF:

METAR-TAF

Aeroports :

Visakhapatnam, Índia

latitud: 17-43-16N, longitud: 83-13-28E, altitud: 6 m

Observació

L'informe es va fer fa 30 minuts, a les 02:30 UTC
Vent 2 kt amb direcció variable
Temperatura 24°C
Humitat 78%
Pressió 1015 hPa
Visibilitat: 3200 m
Escasses núvols a una alçada de 1800 ft
boirina

METAR: VOVZ 130230Z VRB02KT 3200 BR FEW018 24/20 Q1015 BECMG 5000 BR

Hora: 08:30 (03:00 UTC)

Pronòstic

L'informe es va fer fa 1 hora i 0 minuts, a les 02:00 UTC
Pronòstic vàlid del 13 a les 03 UTC al 13 a les 12 UTC
Vent 2 kt amb direcció variable
Visibilitat: 2600 m
Escasses núvols a una alçada de 1800 ft
boirina
Evolucionant progressivament
l' 13 a les 04 UTC al 13 a les 06 UTC
Vent 6 kt del Est/Nord-Est
Visibilitat: 4000 m
calitja
Evolucionant progressivament
l' 13 a les 08 UTC al 13 a les 10 UTC
Vent 10 kt del Est/Sud-Est
Visibilitat: 6000 m

TAF: VOVZ 130200Z 1303/1312 VRB02KT 2600 BR FEW018 BECMG 1304/1306 07006KT 4000 HZ BECMG 1308/1310 11010KT 6000

Observacions i pronòstics meteorològics de més de 4000 aeroports (METAR i TAF).

Les estacions disponibles són els punts grocs i vermells al mapa.

Posi el ratolí al punt desitjat per veure el nom de l'estació.

Feu clic per veure les observacions i els pronòstics meteorològics.

Per canviar el mapa: feu clic els botons verds amb una creu de color negre per apropar; al botó verd amb un guió per allunyar la imatge; o en les fletxes verdes per a mapes adjacents.


METAR-TAF: